WetterOnline ( https://www.wetteronline.de )

Wetter aktuell Rosendahl

Aktuelles Wetter: Ahaus (46m)

6-stündlich | Neueste Meldungen
Ortszeit Temperatur Wetter
Mo, 15.07. 14:00 23.5° C wolkig
Mo, 15.07. 8:00 16.1° C wolkenlos
Mo, 15.07. 2:00 11.7° C wolkenlos
So, 14.07. 20:00 20.6° C bedeckt
So, 14.07. 14:00 21.5° C bewölkt
So, 14.07. 8:00 14.4° C leicht bewölkt
So, 14.07. 2:00 11.7° C wolkenlos
Sa, 13.07. 20:00 16.7° C bewölkt
Ortszeit Temperatur Wetter
Mo, 15.07. 14:00 23.5° C wolkig
Mo, 15.07. 13:30 23.2° C leicht bewölkt
Mo, 15.07. 13:20 23.2° C leicht bewölkt
Mo, 15.07. 13:10 23.0° C wolkig
Mo, 15.07. 13:00 23.2° C leicht bewölkt
Mo, 15.07. 12:50 23.2° C leicht bewölkt
Mo, 15.07. 12:30 23.0° C leicht bewölkt
Mo, 15.07. 12:00 22.4° C leicht bewölkt
Mo, 15.07. 11:30 22.4° C wolkenlos
Mo, 15.07. 11:00 21.7° C wolkenlos
Ortszeit Relative Feuchte Sichtweite
Mo, 15.07. 14:00 48% 50 km
Mo, 15.07. 8:00 81% 35 km
Mo, 15.07. 2:00 98% 22 km
So, 14.07. 20:00 57% 60 km
So, 14.07. 14:00 58% 65 km
So, 14.07. 8:00 85% 25 km
So, 14.07. 2:00 90% 30 km
Sa, 13.07. 20:00 76% 55 km
Ortszeit Relative Feuchte Sichtweite
Mo, 15.07. 14:00 48% 50 km
Mo, 15.07. 13:30 53% 60 km
Mo, 15.07. 13:20 53% -
Mo, 15.07. 13:10 52% -
Mo, 15.07. 13:00 51% 45 km
Mo, 15.07. 12:50 51% -
Mo, 15.07. 12:30 58% 60 km
Mo, 15.07. 12:00 54% 55 km
Mo, 15.07. 11:30 59% 35 km
Mo, 15.07. 11:00 60% 50 km
Ortszeit Niederschlagsmenge Niederschlagsart
Mo, 15.07. 14:00 0.0 l/m2 in 6 Std. -
Mo, 15.07. 8:00 0.0 l/m2 in 12 Std. -
Mo, 15.07. 2:00 0.0 l/m2 in 6 Std. -
So, 14.07. 20:00 0.0 l/m2 in 12 Std. -
So, 14.07. 14:00 0.0 l/m2 in 6 Std. -
So, 14.07. 8:00 0.0 l/m2 in 12 Std. -
So, 14.07. 2:00 0.0 l/m2 in 6 Std. -
Sa, 13.07. 20:00 0.6 l/m2 in 12 Std. Regen
Ortszeit Niederschlagsmenge Niederschlagsart
Mo, 15.07. 14:00 keine Meldung -
Mo, 15.07. 13:30 0.0 l/m2 in 30 Min -
Mo, 15.07. 13:20 keine Meldung -
Mo, 15.07. 13:10 keine Meldung -
Mo, 15.07. 13:00 0.0 l/m2 in 1 Std. -
Mo, 15.07. 12:50 keine Meldung -
Mo, 15.07. 12:30 0.0 l/m2 in 30 Min -
Mo, 15.07. 12:00 0.0 l/m2 in 1 Std. -
Mo, 15.07. 11:30 0.0 l/m2 in 30 Min -
Mo, 15.07. 11:00 0.0 l/m2 in 1 Std. -
Ortszeit Stärke Spitze Richtung
km/h Bft. km/h Grad Sektor
Mo, 15.07. 14:00 4 1 25 100° O
Mo, 15.07. 8:00 7 2 11 150° SO
Mo, 15.07. 2:00 4 1 14 170° S
So, 14.07. 20:00 6 1 35 250° W
So, 14.07. 14:00 14 3 47 220° SW
So, 14.07. 8:00 7 2 14 180° S
So, 14.07. 2:00 7 2 22 220° SW
Sa, 13.07. 20:00 11 2 48 230° SW
Ortszeit Stärke Spitze Richtung
km/h Bft. km/h Grad Sektor
Mo, 15.07. 14:00 4 1 25 100° O
Mo, 15.07. 13:30 7 2 19 210° SW
Mo, 15.07. 13:20 7 2 - 210° SW
Mo, 15.07. 13:10 9 2 - 190° S
Mo, 15.07. 13:00 7 2 22 200° S
Mo, 15.07. 12:50 7 2 - 200° S
Mo, 15.07. 12:30 9 2 20 200° S
Mo, 15.07. 12:00 11 2 22 190° S
Mo, 15.07. 11:30 11 2 22 200° S
Mo, 15.07. 11:00 13 3 24 210° SW
Ortszeit Untergrenze Bedeckung Gattung
total tief tief mittel hoch
Mo, 15.07. 14:00 6000 m 8/8 3/8 - - -
Mo, 15.07. 8:00 - 0/8 0/8 - - -
Mo, 15.07. 2:00 - 0/8 0/8 - - -
So, 14.07. 20:00 6600 m 8/8 8/8 - - -
So, 14.07. 14:00 1290 m 7/8 7/8 - - -
So, 14.07. 8:00 1140 m 8/8 1/8 - - -
So, 14.07. 2:00 - 0/8 0/8 - - -
Sa, 13.07. 20:00 810 m 7/8 7/8 - - -
Ortszeit Bedeckungsgrad in Achtel und Wolkenuntergrenze
Mo, 15.07. 14:00 3(6000m) 8(7200m) 8(8400m)
Mo, 15.07. 13:30 1(1440m) 6(6300m)
Mo, 15.07. 13:20 1(1440m) 6(6300m)
Mo, 15.07. 13:10 5
Mo, 15.07. 13:00 1(1380m) 6(9000m)
Mo, 15.07. 12:50 1(1380m) 6(9000m)
Mo, 15.07. 12:30 1(1380m)
Mo, 15.07. 12:00 2(1350m)
Mo, 15.07. 11:30 keine Wolken
Mo, 15.07. 11:00 keine Wolken
Ortszeit Luftdruck NN (hPa) Tendenz (hPa in 3 Std.)
Mo, 15.07. 14:00 1012 - 0,8
Mo, 15.07. 8:00 1013 + 0,1
Mo, 15.07. 2:00 1013 + 0,3
So, 14.07. 20:00 1012 + 0,1
So, 14.07. 14:00 1012 - 0,4
So, 14.07. 8:00 1013 + 0,5
So, 14.07. 2:00 1013 0,0
Sa, 13.07. 20:00 1013 + 0,3
Ortszeit Luftdruck NN (hPa) Tendenz (hPa in 3 Std.)
Mo, 15.07. 14:00 1012 - 0,8
Mo, 15.07. 13:30 1012 - 0,8
Mo, 15.07. 13:20 1012 keine Meldung
Mo, 15.07. 13:10 1012 keine Meldung
Mo, 15.07. 13:00 1012 - 0,6
Mo, 15.07. 12:50 1012 keine Meldung
Mo, 15.07. 12:30 1013 - 0,6
Mo, 15.07. 12:00 1013 - 0,6
Mo, 15.07. 11:30 1013 - 0,4
Mo, 15.07. 11:00 1013 - 0,4
Ortszeit Schneehöhe (cm)
Mo, 15.07. 14:00 0
Mo, 15.07. 8:00 0
Mo, 15.07. 2:00 0
So, 14.07. 20:00 0
So, 14.07. 14:00 0
So, 14.07. 8:00 0
So, 14.07. 2:00 0
Sa, 13.07. 20:00 0
Ortszeit Schneehöhe (cm)
Mo, 15.07. 14:00 0
Mo, 15.07. 13:30 0
Mo, 15.07. 13:20 0
Mo, 15.07. 13:10 -
Mo, 15.07. 13:00 0
Mo, 15.07. 12:50 0
Mo, 15.07. 12:30 0
Mo, 15.07. 12:00 0
Mo, 15.07. 11:30 0
Mo, 15.07. 11:00 0
Link zu dieser Seite / Seite empfehlen

Das Wetter in ...